LFSG METAR and TAF | Updated Today

LFSG METAR

Épinal-Mirecourt Airport

Observation time: 7 min. ago

LFSG 292030Z AUTO 27003KT 9999 FEW025 SCT048 BKN062 07/06 Q1006

Need help? Read our tutorial on how to read METARs or read the parsed version below.

Épinal-Mirecourt Airport (LFSG) METAR

  • Weather conditions on Thu, 29 Sep 2022 20:30:00 +0000 (7 min. ago):
  • Present conditions: Dry
  • Clouds: A few at 762 meters; scattered at 1463 meters; broken sky at 1890 meters
  • Visibility: Greater than 10 km
  • Wind: 270 degrees at 3 knots
  • Temperature: 7 celsius
  • Dew point: 6 celsius
  • Pressure: 1006 millibars
  • Remarks: None


Useful to know...